createdAt,value
2024-05-09T00:03:00.894Z,101481.89
2024-05-09T00:08:06.017Z,101483.59
2024-05-09T00:13:10.908Z,101485.88
2024-05-09T00:18:14.355Z,101487.39
2024-05-09T00:23:17.247Z,101480.79
2024-05-09T00:28:20.115Z,101477.98
2024-05-09T00:33:23.150Z,101474.15
2024-05-09T00:38:26.046Z,101470.84
2024-05-09T00:43:28.818Z,101474.05
2024-05-09T00:48:32.016Z,101479.52
2024-05-09T00:53:35.127Z,101479.27
2024-05-09T00:58:38.850Z,101477.34
2024-05-09T01:03:41.864Z,101476.92
2024-05-09T01:08:44.834Z,101479.91
2024-05-09T01:13:47.627Z,101477.79
2024-05-09T01:18:50.613Z,101476.29
2024-05-09T01:23:53.483Z,101478.63
2024-05-09T01:28:56.106Z,101486.27
2024-05-09T01:33:59.031Z,101486.67
2024-05-09T01:39:02.016Z,101490.52
2024-05-09T01:44:04.858Z,101483.41
2024-05-09T01:49:08.262Z,101486.66
2024-05-09T01:54:11.186Z,101488.00
2024-05-09T01:59:14.020Z,101483.79
2024-05-09T02:04:17.081Z,101475.61
2024-05-09T02:09:19.926Z,101482.87
2024-05-09T02:14:22.895Z,101492.00
2024-05-09T02:19:25.788Z,101494.69
2024-05-09T02:24:28.532Z,101489.59
2024-05-09T02:29:31.484Z,101490.73
2024-05-09T02:34:34.362Z,101489.28
2024-05-09T02:39:37.038Z,101486.34
2024-05-09T02:44:39.864Z,101487.30
2024-05-09T02:49:42.547Z,101489.45
2024-05-09T02:54:45.446Z,101491.17
2024-05-09T02:59:48.137Z,101494.12
2024-05-09T03:04:50.935Z,101493.19
2024-05-09T03:09:53.739Z,101502.80
2024-05-09T03:14:56.442Z,101500.48
2024-05-09T03:19:59.837Z,101498.77
2024-05-09T03:25:02.764Z,101505.73
2024-05-09T03:30:07.530Z,101509.49
2024-05-09T03:35:10.457Z,101511.35
2024-05-09T03:40:20.472Z,101508.91
2024-05-09T03:45:26.474Z,101503.44
2024-05-09T03:50:33.945Z,101499.48
2024-05-09T03:55:39.062Z,101500.04
2024-05-09T04:00:44.907Z,101502.08
2024-05-09T04:05:47.864Z,101495.76
2024-05-09T04:10:50.639Z,101498.52
2024-05-09T04:15:53.400Z,101499.98
2024-05-09T04:20:56.937Z,101503.88
2024-05-09T04:26:04.200Z,101502.44
2024-05-09T04:31:06.926Z,101500.17
2024-05-09T04:36:09.625Z,101495.33
2024-05-09T04:41:12.503Z,101500.02
2024-05-09T04:46:15.161Z,101504.58
2024-05-09T04:51:17.868Z,101503.36
2024-05-09T04:56:20.783Z,101498.30
2024-05-09T05:01:23.597Z,101505.12
2024-05-09T05:06:26.276Z,101505.16
2024-05-09T05:11:29.034Z,101503.66
2024-05-09T05:16:31.731Z,101504.52
2024-05-09T05:21:34.442Z,101496.16
2024-05-09T05:26:37.262Z,101493.34
2024-05-09T05:31:43.460Z,101495.30
2024-05-09T05:36:46.309Z,101486.88
2024-05-09T05:41:49.073Z,101484.71
2024-05-09T05:46:51.953Z,101480.82
2024-05-09T05:51:54.688Z,101479.98
2024-05-09T05:56:58.918Z,101474.79
2024-05-09T06:02:02.237Z,101482.43
2024-05-09T06:07:07.496Z,101479.25
2024-05-09T06:12:10.409Z,101477.20
2024-05-09T06:17:22.374Z,101474.27
2024-05-09T06:22:25.450Z,101482.78
2024-05-09T06:27:28.310Z,101481.45
2024-05-09T06:32:31.239Z,101479.27
2024-05-09T06:37:37.112Z,101470.52
2024-05-09T06:42:39.925Z,101461.80
2024-05-09T06:47:42.938Z,101455.42
2024-05-09T06:52:48.738Z,101454.27
2024-05-09T06:57:51.683Z,101446.06
2024-05-09T07:02:54.830Z,101441.66
2024-05-09T07:07:59.417Z,101436.31
2024-05-09T07:13:02.438Z,101436.26
2024-05-09T07:18:17.153Z,101441.78
2024-05-09T07:23:21.561Z,101433.38
2024-05-09T07:28:24.996Z,101427.40
2024-05-09T07:33:28.189Z,101421.56
2024-05-09T07:38:31.310Z,101421.73
2024-05-09T07:43:35.933Z,101419.06
2024-05-09T07:53:50.650Z,101416.27
2024-05-09T07:58:56.577Z,101416.73
2024-05-09T08:03:59.514Z,101420.30
2024-05-09T08:09:07.684Z,101412.42
2024-05-09T08:14:13.481Z,101414.73
2024-05-09T08:19:16.174Z,101412.42
2024-05-09T08:24:18.903Z,101412.48
2024-05-09T08:29:22.106Z,101415.34
2024-05-09T08:34:26.238Z,101408.17
2024-05-09T08:39:29.734Z,101405.82
2024-05-09T08:44:37.308Z,101401.02
2024-05-09T08:49:41.657Z,101398.55
2024-05-09T08:54:46.332Z,101396.67
2024-05-09T08:59:50.843Z,101389.96
2024-05-09T09:05:05.457Z,101387.90
2024-05-09T09:10:08.816Z,101388.42
2024-05-09T09:15:11.514Z,101384.83
2024-05-09T09:20:18.888Z,101383.52
2024-05-09T09:25:25.763Z,101381.70
2024-05-09T09:30:36.168Z,101380.78
2024-05-09T09:54:44.728Z,101359.85
2024-05-09T09:59:50.448Z,101349.42
2024-05-09T10:04:54.598Z,101354.67
2024-05-09T10:09:57.911Z,101352.41
2024-05-09T10:15:07.897Z,101347.14
2024-05-09T10:20:18.318Z,101339.86
2024-05-09T10:25:25.027Z,101331.48
2024-05-09T10:30:34.042Z,101327.19
2024-05-09T10:35:39.352Z,101326.86
2024-05-09T10:40:44.293Z,101324.09
2024-05-09T10:45:50.509Z,101323.20
2024-05-09T10:50:53.348Z,101318.18
2024-05-09T10:56:06.107Z,101317.80
2024-05-09T11:01:09.837Z,101313.54
2024-05-09T11:06:14.865Z,101307.82
2024-05-09T11:11:17.772Z,101303.55
2024-05-09T11:16:21.254Z,101294.20
2024-05-09T11:21:24.672Z,101291.33
2024-05-09T11:26:29.249Z,101287.33
2024-05-09T11:31:32.083Z,101288.25
2024-05-09T11:36:34.896Z,101278.47
2024-05-09T11:41:38.859Z,101272.44
2024-05-09T11:52:21.164Z,101261.20
2024-05-09T11:57:24.502Z,101257.30
2024-05-09T12:02:27.302Z,101251.66
2024-05-09T12:07:30.152Z,101241.32
2024-05-09T12:12:34.262Z,101234.42
2024-05-09T12:17:38.243Z,101233.08
2024-05-09T12:22:40.998Z,101234.58
2024-05-09T12:27:43.914Z,101233.85
2024-05-09T12:32:46.694Z,101227.45
2024-05-09T12:37:49.607Z,101222.22
2024-05-09T12:42:52.374Z,101217.22
2024-05-09T12:47:55.446Z,101211.11
2024-05-09T12:52:58.459Z,101206.89
2024-05-09T12:58:01.261Z,101204.64
2024-05-09T13:03:04.407Z,101203.16
2024-05-09T13:08:08.117Z,101197.23
2024-05-09T13:13:11.451Z,101194.00
2024-05-09T13:18:14.257Z,101189.04
2024-05-09T13:23:16.940Z,101184.69
2024-05-09T13:28:19.682Z,101176.92
2024-05-09T13:33:22.847Z,101177.86
2024-05-09T13:38:25.983Z,101170.92
2024-05-09T13:43:28.767Z,101160.60
2024-05-09T13:48:31.834Z,101165.29
2024-05-09T13:53:34.592Z,101161.73
2024-05-09T13:58:37.404Z,101154.30
2024-05-09T14:03:40.275Z,101148.10
2024-05-09T14:08:46.938Z,101142.95
2024-05-09T14:13:49.793Z,101138.11
2024-05-09T14:18:55.510Z,101137.42
2024-05-09T14:24:01.222Z,101125.41
2024-05-09T14:29:03.951Z,101115.39
2024-05-09T14:34:06.767Z,101113.39
2024-05-09T14:39:09.743Z,101107.38
2024-05-09T14:44:12.845Z,101100.09
2024-05-09T14:49:15.557Z,101097.83
2024-05-09T14:54:18.352Z,101088.28
2024-05-09T14:59:20.982Z,101085.32
2024-05-09T15:04:23.996Z,101076.08
2024-05-09T15:09:26.951Z,101071.25
2024-05-09T15:14:29.755Z,101062.59
2024-05-09T15:19:32.931Z,101054.98
2024-05-09T15:24:36.098Z,101048.02
2024-05-09T15:29:39.314Z,101048.77
2024-05-09T15:34:42.781Z,101048.23
2024-05-09T15:39:45.534Z,101041.63
2024-05-09T15:44:53.121Z,101039.68
2024-05-09T15:49:56.390Z,101038.19
2024-05-09T15:54:59.552Z,101032.72
2024-05-09T16:00:02.721Z,101027.08
2024-05-09T16:05:07.637Z,101026.42
2024-05-09T16:10:13.209Z,101026.70
2024-05-09T16:15:18.929Z,101023.39
2024-05-09T16:20:33.977Z,101023.04
2024-05-09T16:25:47.725Z,101019.65
2024-05-09T16:30:51.337Z,101008.05
2024-05-09T16:35:54.023Z,101005.93
2024-05-09T16:40:56.828Z,101004.17
2024-05-09T16:45:59.621Z,101003.80
2024-05-09T16:51:02.306Z,101002.47
2024-05-09T16:56:06.345Z,100998.83
2024-05-09T17:01:09.083Z,100994.36
2024-05-09T17:06:12.232Z,100993.73
2024-05-09T17:11:15.569Z,100990.30
2024-05-09T17:16:18.756Z,100987.91
2024-05-09T17:21:21.665Z,100985.11
2024-05-09T17:26:24.562Z,100984.87
2024-05-09T17:31:27.454Z,100980.08
2024-05-09T17:36:30.449Z,100974.27
2024-05-09T17:41:33.169Z,100969.95
2024-05-09T17:46:36.209Z,100965.66
2024-05-09T17:51:39.019Z,100967.18
2024-05-09T17:56:44.343Z,100967.66
2024-05-09T18:01:47.244Z,100959.80
2024-05-09T18:06:50.839Z,100962.44
2024-05-09T18:11:54.001Z,100962.13
2024-05-09T18:16:56.898Z,100961.22
2024-05-09T18:21:59.582Z,100971.41
2024-05-09T18:27:02.704Z,100966.80
2024-05-09T18:32:06.031Z,100971.87
2024-05-09T18:37:09.779Z,100970.95
2024-05-09T18:42:12.624Z,100969.34
2024-05-09T18:47:19.315Z,100973.86
2024-05-09T18:52:23.872Z,100970.73
2024-05-09T18:57:26.555Z,100973.46
2024-05-09T19:02:29.467Z,100972.15
2024-05-09T19:07:32.257Z,100977.73
2024-05-09T19:12:34.992Z,100976.21
2024-05-09T19:17:37.880Z,100975.08
2024-05-09T19:22:40.663Z,100975.96
2024-05-09T19:27:43.684Z,100980.48
2024-05-09T19:32:46.594Z,100977.45
2024-05-09T19:37:51.539Z,100975.96
2024-05-09T19:42:54.259Z,100973.91
2024-05-09T19:47:57.527Z,100977.42
2024-05-09T19:53:00.338Z,100974.85
2024-05-09T19:58:05.383Z,100974.00
2024-05-09T20:03:09.919Z,100972.10
2024-05-09T20:08:13.444Z,100970.77
2024-05-09T20:13:16.304Z,100970.00
2024-05-09T20:18:19.231Z,100969.04
2024-05-09T20:23:22.068Z,100969.30
2024-05-09T20:28:24.799Z,100971.25
2024-05-09T20:33:28.700Z,100971.20
2024-05-09T20:38:31.399Z,100969.68
2024-05-09T20:43:34.122Z,100966.56
2024-05-09T20:48:37.082Z,100965.73
2024-05-09T20:53:39.891Z,100962.78
2024-05-09T20:58:42.588Z,100970.98
2024-05-09T21:03:45.373Z,100970.51
2024-05-09T21:08:48.436Z,100971.72
2024-05-09T21:13:51.357Z,100971.84
2024-05-09T21:18:54.037Z,100972.56
2024-05-09T21:23:56.795Z,100969.66
2024-05-09T21:28:59.615Z,100968.89
2024-05-09T21:34:02.428Z,100968.55
2024-05-09T21:39:05.407Z,100966.92
2024-05-09T21:44:08.214Z,100971.94
2024-05-09T21:49:11.175Z,100973.19
2024-05-09T21:54:14.144Z,100973.21
2024-05-09T21:59:16.914Z,100975.30
2024-05-09T22:04:19.735Z,100977.19
2024-05-09T22:09:22.717Z,100972.54
2024-05-09T22:14:25.518Z,100974.42
2024-05-09T22:19:29.813Z,100967.10
2024-05-09T22:24:32.939Z,100966.17
2024-05-09T22:29:35.668Z,100961.31
2024-05-09T22:34:38.430Z,100958.79
2024-05-09T22:39:41.188Z,100955.42
2024-05-09T22:44:43.968Z,100951.77
2024-05-09T22:49:46.612Z,100946.20
2024-05-09T22:54:49.433Z,100940.20
2024-05-09T22:59:52.476Z,100940.14
2024-05-09T23:04:55.398Z,100942.00
2024-05-09T23:09:58.564Z,100940.14
2024-05-09T23:15:01.293Z,100940.98
2024-05-09T23:20:06.852Z,100938.29
2024-05-09T23:25:09.789Z,100933.52
2024-05-09T23:30:18.318Z,100929.42
2024-05-09T23:35:29.084Z,100921.90
2024-05-09T23:45:37.743Z,100922.91
2024-05-09T23:50:41.109Z,100914.66
2024-05-09T23:55:44.585Z,100912.75
